PDT,Max TemperatureF,Mean TemperatureF,Min TemperatureF,Max Dew PointF,MeanDew PointF,Min DewpointF,Max Humidity, Mean Humidity, Min Humidity, Max Sea Level PressureIn, Mean Sea Level PressureIn, Min Sea Level PressureIn, Max VisibilityMiles, Mean VisibilityMiles, Min VisibilityMiles, Max Wind SpeedMPH, Mean Wind SpeedMPH, Max Gust SpeedMPH,PrecipitationIn, CloudCover, Events, WindDirDegrees
2013-10-1,60,46,33,36,29,25,70,55,31,30.18,30.04,29.97,10,10,5,23,6,30,0.03,4,,296
2013-10-2,51,38,26,32,26,18,70,58,43,30.18,30.06,29.96,10,10,4,15,4,22,0.01,3,,318
2013-10-3,51,45,39,32,29,27,65,55,44,30.37,30.20,30.02,10,10,10,23,13,30,0.01,6,,315
2013-10-4,60,44,28,36,25,19,69,51,27,30.48,30.42,30.37,10,10,9,13,6,20,0.00,0,,338
2013-10-5,66,46,26,34,26,18,70,45,26,30.46,30.37,30.28,10,10,1,20,4,24,0.00,0,,172
2013-10-6,69,60,51,28,25,21,33,27,20,30.29,30.14,29.99,10,10,10,28,18,39,0.00,0,,175
2013-10-7,60,48,37,36,28,19,60,47,31,30.02,29.98,29.92,10,10,4,24,5,30,0.00,3,,300
2013-10-8,51,46,41,34,30,28,70,57,41,30.02,29.96,29.92,10,10,7,16,5,25,0.15,8,,345
2013-10-9,53,46,39,34,31,28,70,58,41,29.99,29.94,29.88,10,10,10,22,12,29,0.01,3,,319
2013-10-10,57,49,41,32,29,23,61,49,33,30.00,29.90,29.85,10,10,10,16,11,22,0.00,3,,318
2013-10-11,59,49,39,34,29,27,65,50,31,30.10,30.04,30.00,10,10,4,12,3,,0.00,4,,339
2013-10-12,51,43,35,36,31,25,66,59,47,30.08,30.02,29.99,10,10,3,15,3,20,0.08,7,,305
2013-10-13,55,47,39,36,30,25,61,52,38,30.26,30.16,30.08,10,10,10,20,12,21,0.01,6,,316
2013-10-14,57,42,28,32,26,18,65,52,36,30.36,30.31,30.26,10,10,10,14,8,16,0.00,1,,325
2013-10-15,59,42,26,32,25,16,69,52,33,30.40,30.30,30.18,10,10,3,10,3,,0.00,0,,321
2013-10-16,62,47,32,34,27,19,65,50,30,30.18,30.13,30.08,10,10,3,16,3,20,0.00,1,,333
2013-10-17,60,44,28,34,26,18,69,53,31,30.25,30.22,30.17,10,10,3,15,3,,0.00,0,,329
2013-10-18,59,42,24,34,25,16,69,56,36,30.32,30.25,30.19,10,9,2,13,2,,0.00,0,,262
2013-10-19,64,44,24,36,26,14,70,53,34,30.21,30.15,30.07,10,8,0,13,1,,0.00,0,,327
2013-10-20,68,47,26,36,27,16,69,50,30,30.18,30.15,30.11,10,10,2,14,4,18,0.00,0,,294
2013-10-21,66,48,30,39,30,19,69,54,34,30.24,30.19,30.14,10,9,4,7,2,,0.00,0,,285
2013-10-22,66,47,28,39,30,18,70,57,37,30.24,30.17,30.10,10,8,0,8,1,,0.00,0,,252
2013-10-23,66,47,28,41,30,18,74,58,37,30.17,30.12,30.06,10,7,0,7,1,,0.00,1,,268
2013-10-24,64,45,26,39,29,16,70,57,37,30.16,30.11,30.06,10,9,0,6,1,,0.00,0,,278
2013-10-25,64,45,26,39,28,18,74,57,37,30.26,30.21,30.14,10,8,0,4,0,,0.00,1,,262
2013-10-26,64,45,26,37,27,18,70,57,37,30.31,30.22,30.08,10,8,0,5,0,,0.00,0,,296
2013-10-27,53,40,26,36,28,16,75,60,44,30.08,29.80,29.67,10,9,2,18,5,24,0.04,4,,310
2013-10-28,48,42,37,34,25,19,62,50,43,29.80,29.70,29.65,10,10,10,30,19,34,0.04,4,,318
2013-10-29,50,38,26,25,20,14,64,49,32,29.99,29.93,29.81,10,10,5,16,6,18,0.00,0,,239
2013-10-30,55,37,19,27,19,9,69,52,30,30.11,30.05,29.99,10,10,8,14,2,21,0.00,0,,263
2013-10-31,48,39,30,37,30,16,71,64,55,30.22,30.13,30.10,10,9,2,10,3,,0.10,7,,171